Time;durP1;ratioP1;P1;durP2;ratioP2;P2;SDS_P1;SDS_P2;PMS_P1;PMS_P2;Temp;Humidity;BMP_temperature;BMP_pressure;BME280_temperature;BME280_humidity;BME280_pressure;Samples;Min_cycle;Max_cycle;Signal;HPM_P1;HPM_P2
2022/04/02 00:01:23;;;;;;;16.70;9.45;;;;;;;6.57;100.00;89293.69;4991816;28;20497;-61
2022/04/02 00:03:48;;;;;;;15.60;7.95;;;;;;;6.50;100.00;89288.94;4992851;28;20049;-60
2022/04/02 00:06:14;;;;;;;17.40;8.23;;;;;;;6.50;100.00;89281.03;4992756;28;20034;-61
2022/04/02 00:08:39;;;;;;;15.75;7.80;;;;;;;6.52;100.00;89278.06;4992516;28;20022;-61
2022/04/02 00:11:05;;;;;;;16.95;7.97;;;;;;;6.60;100.00;89287.75;4992377;28;20096;-59
2022/04/02 00:13:31;;;;;;;12.63;8.13;;;;;;;6.57;100.00;89288.41;4992312;28;20038;-61
2022/04/02 00:15:58;;;;;;;19.38;8.48;;;;;;;6.68;100.00;89284.28;4992944;28;20034;-58
2022/04/02 00:18:23;;;;;;;13.77;9.27;;;;;;;6.47;100.00;89279.03;4992307;28;20076;-62
2022/04/02 00:20:49;;;;;;;16.85;8.00;;;;;;;6.37;100.00;89262.81;4992603;28;20137;-60
2022/04/02 00:25:59;;;;;;;11.20;5.28;;;;;;;6.46;100.00;89260.84;4991441;28;20112;-60
2022/04/02 00:28:24;;;;;;;14.85;6.15;;;;;;;6.55;100.00;89277.41;4992358;28;20921;-60
2022/04/02 00:30:49;;;;;;;18.52;8.52;;;;;;;6.61;100.00;89268.94;4992753;28;20030;-61
2022/04/02 00:33:15;;;;;;;12.77;7.05;;;;;;;6.50;100.00;89272.34;4992366;28;20460;-61
2022/04/02 00:35:41;;;;;;;13.55;6.15;;;;;;;6.38;100.00;89270.41;4992323;28;20097;-61
2022/04/02 00:38:07;;;;;;;14.10;6.07;;;;;;;6.38;100.00;89274.91;4992555;28;20033;-61
2022/04/02 00:40:32;;;;;;;14.70;6.72;;;;;;;6.32;100.00;89276.22;4992386;28;20105;-61
2022/04/02 00:42:58;;;;;;;10.60;6.03;;;;;;;6.21;100.00;89273.94;4992564;28;20035;-61
2022/04/02 00:45:23;;;;;;;8.88;4.63;;;;;;;6.24;100.00;89275.94;4991775;28;20440;-60
2022/04/02 00:47:49;;;;;;;13.82;6.88;;;;;;;6.17;100.00;89274.94;4992037;28;20033;-60
2022/04/02 00:50:14;;;;;;;11.65;5.35;;;;;;;6.14;100.00;89271.03;4992097;28;20031;-60
2022/04/02 00:52:40;;;;;;;13.82;6.35;;;;;;;6.11;100.00;89274.31;4992073;28;20104;-60
2022/04/02 00:55:06;;;;;;;10.10;4.90;;;;;;;6.09;100.00;89265.97;4992103;28;20046;-61
2022/04/02 00:57:33;;;;;;;10.15;3.83;;;;;;;6.16;100.00;89279.44;4991820;28;20054;-61
2022/04/02 00:59:58;;;;;;;10.00;5.07;;;;;;;6.13;100.00;89271.38;4991718;28;20031;-61
2022/04/02 01:02:24;;;;;;;17.85;8.18;;;;;;;6.14;100.00;89267.63;4991720;28;20034;-61
2022/04/02 01:04:50;;;;;;;20.38;9.43;;;;;;;6.10;100.00;89264.88;4991812;28;20101;-61
2022/04/02 01:07:16;;;;;;;23.90;9.95;;;;;;;6.14;100.00;89259.72;4991661;28;20038;-60
2022/04/02 01:09:42;;;;;;;13.75;6.25;;;;;;;6.20;100.00;89259.22;4991686;28;20026;-61
2022/04/02 01:12:08;;;;;;;19.63;8.40;;;;;;;6.14;100.00;89244.63;4986597;28;20031;-61
2022/04/02 01:14:34;;;;;;;22.83;8.73;;;;;;;6.11;100.00;89250.56;4991475;28;20072;-61
2022/04/02 01:17:01;;;;;;;17.77;7.38;;;;;;;6.21;100.00;89241.50;4991184;28;20137;-60
2022/04/02 01:19:28;;;;;;;28.02;9.98;;;;;;;6.16;100.00;89236.44;4991736;28;20045;-60
2022/04/02 01:21:54;;;;;;;20.63;8.15;;;;;;;6.21;100.00;89238.84;4991848;28;20113;-60
2022/04/02 01:24:20;;;;;;;4.68;1.92;;;;;;;6.26;100.00;89230.72;4991770;28;20464;-60
2022/04/02 01:26:45;;;;;;;4.15;2.20;;;;;;;6.34;100.00;89261.59;4991270;28;20096;-60
2022/04/02 01:29:11;;;;;;;9.98;4.57;;;;;;;6.23;100.00;89257.78;4991432;28;20497;-60
2022/04/02 01:31:36;;;;;;;9.98;4.13;;;;;;;6.25;100.00;89256.38;4991150;28;20026;-60
2022/04/02 01:34:02;;;;;;;4.38;2.10;;;;;;;6.24;100.00;89262.75;4991309;28;20515;-60
2022/04/02 01:36:28;;;;;;;12.07;5.65;;;;;;;6.05;100.00;89266.94;4991483;28;20046;-60
2022/04/02 01:38:53;;;;;;;9.52;4.05;;;;;;;6.02;100.00;89260.44;4991254;28;21297;-60
2022/04/02 01:41:20;;;;;;;9.35;3.60;;;;;;;5.95;100.00;89266.22;4991290;28;20109;-60
2022/04/02 01:43:46;;;;;;;11.73;5.43;;;;;;;6.06;100.00;89257.91;4991293;28;20042;-60
2022/04/02 01:46:12;;;;;;;8.15;3.80;;;;;;;6.00;100.00;89270.53;4991190;28;20080;-60
2022/04/02 01:48:39;;;;;;;6.82;3.85;;;;;;;5.91;100.00;89270.59;4990986;28;20113;-60
2022/04/02 01:51:04;;;;;;;6.15;2.28;;;;;;;5.88;100.00;89273.84;4991199;28;20042;-60
2022/04/02 01:53:31;;;;;;;4.55;1.90;;;;;;;5.89;100.00;89269.34;4991113;28;20046;-60
2022/04/02 01:55:57;;;;;;;4.88;1.75;;;;;;;5.84;100.00;89267.66;4991437;28;20034;-60
2022/04/02 01:58:23;;;;;;;1.88;1.50;;;;;;;5.81;100.00;89264.88;4991227;28;20039;-61
2022/04/02 02:00:48;;;;;;;3.25;1.63;;;;;;;5.86;100.00;89275.25;4991114;28;20107;-60
2022/04/02 02:03:14;;;;;;;2.28;1.58;;;;;;;5.80;100.00;89271.25;4991090;28;20038;-60
2022/04/02 02:05:40;;;;;;;2.85;1.65;;;;;;;5.78;100.00;89274.22;4985071;28;20102;-61
2022/04/02 02:08:06;;;;;;;5.43;2.45;;;;;;;5.72;100.00;89286.81;4987806;28;20509;-61
2022/04/02 02:10:32;;;;;;;9.20;3.35;;;;;;;5.69;100.00;89290.09;4990808;28;20035;-61
2022/04/02 02:12:58;;;;;;;4.97;3.50;;;;;;;5.66;100.00;89298.63;4990465;28;20085;-60
2022/04/02 02:15:25;;;;;;;5.18;2.90;;;;;;;5.64;100.00;89305.31;4990618;28;20034;-60
2022/04/02 02:17:51;;;;;;;6.53;2.95;;;;;;;5.69;100.00;89298.00;4990486;28;20523;-60
2022/04/02 02:20:17;;;;;;;6.47;2.00;;;;;;;5.65;100.00;89302.34;4990501;28;20066;-60
2022/04/02 02:22:44;;;;;;;3.28;2.20;;;;;;;5.53;100.00;89312.84;4990193;28;20072;-60
2022/04/02 02:25:13;;;;;;;8.10;3.38;;;;;;;5.46;100.00;89309.91;4990816;28;20523;-60
2022/04/02 02:27:40;;;;;;;5.90;2.60;;;;;;;5.32;100.00;89314.59;4990498;28;20062;-60
2022/04/02 02:30:07;;;;;;;6.07;2.55;;;;;;;5.29;100.00;89317.88;4990654;28;20034;-60
2022/04/02 02:32:36;;;;;;;5.45;2.78;;;;;;;5.15;100.00;89314.66;4990595;28;20808;-60
2022/04/02 02:38:11;;;;;;;6.15;3.15;;;;;;;4.98;100.00;89333.94;4988207;28;20100;-61
2022/04/02 02:40:39;;;;;;;8.40;3.70;;;;;;;4.85;100.00;89330.38;4988612;28;20042;-61
2022/04/02 02:43:05;;;;;;;7.47;3.22;;;;;;;4.78;100.00;89343.28;4990300;28;20125;-60
2022/04/02 02:45:32;;;;;;;8.82;3.08;;;;;;;4.76;100.00;89343.59;4988072;28;20027;-60
2022/04/02 02:47:59;;;;;;;4.50;3.30;;;;;;;4.74;100.00;89332.59;4990157;28;20041;-61
2022/04/02 02:50:25;;;;;;;5.32;3.42;;;;;;;4.66;100.00;89341.25;4987315;28;20042;-61
2022/04/02 02:52:51;;;;;;;5.45;3.38;;;;;;;4.73;100.00;89330.25;4984979;28;20045;-60
2022/04/02 02:55:17;;;;;;;4.03;2.40;;;;;;;4.84;100.00;89338.59;4990157;28;20034;-61
2022/04/02 02:57:43;;;;;;;7.18;3.10;;;;;;;4.86;100.00;89334.56;4990215;28;20489;-60
2022/04/02 03:00:11;;;;;;;2.03;1.65;;;;;;;4.81;100.00;89342.66;4990218;28;20125;-61
2022/04/02 03:02:39;;;;;;;3.70;1.80;;;;;;;4.86;100.00;89336.44;4990059;28;20038;-60
2022/04/02 03:05:13;;;;;;;5.63;2.45;;;;;;;4.83;100.00;89332.56;4990138;28;20062;-60
2022/04/02 03:07:39;;;;;;;;;;;;;;;4.78;100.00;89338.00;4988844;28;20034;-60
2022/04/02 03:10:05;;;;;;;10.30;3.78;;;;;;;4.76;100.00;89340.19;4990021;28;19925;-60
2022/04/02 03:12:32;;;;;;;4.55;3.25;;;;;;;4.71;100.00;89345.59;4987291;28;20133;-60
2022/04/02 03:14:58;;;;;;;11.00;4.20;;;;;;;4.65;100.00;89350.25;4989897;28;20038;-60
2022/04/02 03:17:25;;;;;;;6.35;3.38;;;;;;;4.62;100.00;89350.09;4989996;28;20105;-60
2022/04/02 03:19:50;;;;;;;5.57;3.22;;;;;;;4.58;100.00;89349.97;4990018;28;20046;-61
2022/04/02 03:22:16;;;;;;;15.07;7.93;;;;;;;4.56;100.00;89348.69;4989983;28;20034;-60
2022/04/02 03:24:41;;;;;;;8.63;4.85;;;;;;;4.53;100.00;89344.84;4990214;28;20117;-60
2022/04/02 03:27:07;;;;;;;6.57;3.55;;;;;;;4.47;100.00;89346.09;4989808;28;20408;-61
2022/04/02 03:29:32;;;;;;;6.10;3.85;;;;;;;4.50;100.00;89335.69;4990050;28;20114;-61
2022/04/02 03:31:58;;;;;;;13.82;4.82;;;;;;;4.51;100.00;89341.75;4989875;28;20030;-61
2022/04/02 03:34:23;;;;;;;8.55;5.18;;;;;;;4.41;100.00;89345.44;4989801;28;20038;-60
2022/04/02 03:36:49;;;;;;;6.15;3.80;;;;;;;4.40;100.00;89353.66;4993058;28;20041;-60
2022/04/02 03:39:14;;;;;;;14.57;9.60;;;;;;;4.48;100.00;89361.56;4993427;28;20242;-60
2022/04/02 03:41:40;;;;;;;20.33;13.20;;;;;;;4.46;100.00;89361.09;4993450;28;20042;-60
2022/04/02 03:44:05;;;;;;;84.38;47.40;;;;;;;4.68;100.00;89359.38;4993302;28;20057;-60
2022/04/02 03:49:15;;;;;;;5.45;3.17;;;;;;;5.24;100.00;89360.25;4991299;28;20417;-60
2022/04/02 03:51:41;;;;;;;3.60;3.30;;;;;;;5.45;100.00;89355.81;4993158;28;20030;-60
2022/04/02 03:54:06;;;;;;;4.75;3.72;;;;;;;5.39;100.00;89359.72;4992888;28;20077;-62
2022/04/02 03:56:32;;;;;;;3.58;2.70;;;;;;;5.51;100.00;89362.47;4993085;28;20030;-60
2022/04/02 03:58:57;;;;;;;1.35;1.05;;;;;;;5.72;100.00;89378.38;4993070;28;20041;-63
2022/04/02 04:01:23;;;;;;;13.23;7.93;;;;;;;5.67;100.00;89374.03;4993154;28;20117;-60
2022/04/02 04:03:48;;;;;;;10.02;6.72;;;;;;;5.70;100.00;89372.66;4993030;28;20035;-61
2022/04/02 04:06:14;;;;;;;5.13;3.53;;;;;;;5.66;100.00;89388.31;4993280;28;20041;-59
2022/04/02 04:08:40;;;;;;;7.40;4.30;;;;;;;5.79;100.00;89381.28;4992957;28;20034;-60
2022/04/02 04:11:06;;;;;;;6.47;4.53;;;;;;;5.88;100.00;89379.41;4993160;28;20472;-60
2022/04/02 04:13:32;;;;;;;24.95;18.30;;;;;;;5.80;100.00;89379.41;4990178;28;20129;-60
2022/04/02 04:16:00;;;;;;;4.32;3.55;;;;;;;5.85;100.00;89374.75;4992903;28;20113;-60
2022/04/02 04:18:26;;;;;;;2.30;1.92;;;;;;;5.95;100.00;89379.69;4986935;28;20486;-60
2022/04/02 04:20:52;;;;;;;3.70;2.30;;;;;;;6.25;100.00;89380.47;4987492;28;20038;-60
2022/04/02 04:23:17;;;;;;;2.65;1.35;;;;;;;6.26;100.00;89382.00;4992689;28;20471;-60
2022/04/02 04:25:43;;;;;;;1.83;1.20;;;;;;;6.35;100.00;89397.03;4992627;28;20069;-60
2022/04/02 04:28:08;;;;;;;1.30;1.20;;;;;;;6.17;100.00;89389.22;4992691;28;20034;-61
2022/04/02 04:30:34;;;;;;;1.30;1.10;;;;;;;5.94;100.00;89387.94;4992729;28;20042;-60
2022/04/02 04:32:59;;;;;;;3.10;1.23;;;;;;;5.88;100.00;89399.72;4992432;28;20085;-60
2022/04/02 04:35:25;;;;;;;1.48;1.30;;;;;;;5.90;100.00;89397.56;4992257;28;20038;-61
2022/04/02 04:37:51;;;;;;;3.50;1.80;;;;;;;6.01;100.00;89414.63;4992147;28;20026;-60
2022/04/02 04:40:17;;;;;;;1.55;1.30;;;;;;;6.35;100.00;89407.59;4992185;28;20045;-60
2022/04/02 04:42:43;;;;;;;1.77;1.50;;;;;;;7.27;100.00;89408.31;4992204;28;20026;-60
2022/04/02 04:45:09;;;;;;;2.83;2.20;;;;;;;7.32;100.00;89402.03;4992088;28;20034;-60
2022/04/02 04:47:34;;;;;;;1.67;1.10;;;;;;;7.56;100.00;89383.56;4991862;28;20622;-60
2022/04/02 04:50:00;;;;;;;1.65;1.25;;;;;;;8.24;100.00;89399.00;4992149;28;20023;-60
2022/04/02 04:52:26;;;;;;;1.00;1.00;;;;;;;8.16;100.00;89383.97;4992285;28;20076;-60
2022/04/02 04:54:51;;;;;;;7.30;4.57;;;;;;;7.91;100.00;89417.63;4992007;28;20485;-60
2022/04/02 04:57:17;;;;;;;4.00;2.30;;;;;;;7.79;100.00;89421.78;4991566;28;20023;-61
2022/04/02 04:59:42;;;;;;;10.73;6.47;;;;;;;7.78;100.00;89430.06;4992031;28;20022;-60
2022/04/02 05:02:12;;;;;;;2.80;2.42;;;;;;;8.28;100.00;89443.03;4991588;28;20029;-61
2022/04/02 05:04:37;;;;;;;4.63;2.58;;;;;;;10.19;87.02;89451.50;4993325;28;20038;-60
2022/04/02 05:07:03;;;;;;;4.70;3.20;;;;;;;12.39;70.66;89449.34;4992920;28;20628;-61
2022/04/02 05:09:29;;;;;;;3.60;2.65;;;;;;;14.84;57.14;89454.47;4993345;28;20039;-65
2022/04/02 05:11:57;;;;;;;3.45;2.47;;;;;;;16.22;50.31;89454.56;4993008;28;20034;-62
2022/04/02 05:14:23;;;;;;;2.28;1.83;;;;;;;14.85;49.32;89456.78;4992026;28;20062;-60
2022/04/02 05:16:51;;;;;;;2.72;2.08;;;;;;;14.34;50.11;89476.13;4992359;28;20042;-61
2022/04/02 05:19:16;;;;;;;4.70;1.42;;;;;;;12.42;53.65;89462.75;4992997;28;20106;-61
2022/04/02 05:21:42;;;;;;;4.05;2.88;;;;;;;11.63;58.37;89447.16;4992147;28;20560;-60
2022/04/02 05:24:07;;;;;;;3.72;2.80;;;;;;;12.48;58.16;89453.34;4992816;28;20026;-61
2022/04/02 05:26:33;;;;;;;7.75;5.88;;;;;;;14.78;51.57;89463.97;4992374;28;20456;-65
2022/04/02 05:28:59;;;;;;;17.88;13.10;;;;;;;17.27;46.13;89462.44;4992639;28;20022;-66
2022/04/02 05:31:25;;;;;;;11.10;6.50;;;;;;;19.53;41.04;89455.75;4992477;28;20085;-66
2022/04/02 05:33:51;;;;;;;4.15;2.92;;;;;;;20.44;38.40;89469.56;4992353;28;20057;-63
2022/04/02 05:36:16;;;;;;;3.53;1.77;;;;;;;19.01;39.98;89471.94;4992131;28;20531;-63
2022/04/02 05:38:42;;;;;;;5.75;4.90;;;;;;;19.39;39.31;89473.59;4992298;28;20030;-64
2022/04/02 05:41:08;;;;;;;25.20;17.02;;;;;;;20.02;38.43;89458.03;4992370;28;20030;-65
2022/04/02 05:43:34;;;;;;;7.70;5.60;;;;;;;21.18;36.22;89467.06;4992147;28;20030;-63
2022/04/02 05:45:59;;;;;;;5.50;4.38;;;;;;;20.63;36.39;89474.34;4992173;28;20030;-63
2022/04/02 05:48:25;;;;;;;7.60;6.85;;;;;;;21.14;36.11;89469.81;4992211;28;20030;-62
2022/04/02 05:50:50;;;;;;;4.43;2.63;;;;;;;21.00;35.04;89464.63;4976982;28;20035;-58
2022/04/02 05:53:17;;;;;;;3.85;1.73;;;;;;;20.31;35.74;89480.09;4972251;28;20030;-59
2022/04/02 05:55:42;;;;;;;4.65;3.35;;;;;;;20.75;34.84;89466.88;4972282;28;20031;-59
2022/04/02 05:58:11;;;;;;;3.08;1.70;;;;;;;20.56;35.01;89455.53;4971878;28;20038;-59
2022/04/02 06:00:37;;;;;;;4.60;1.40;;;;;;;22.84;33.46;89461.94;4972422;28;20030;-59
2022/04/02 06:03:03;;;;;;;3.35;2.30;;;;;;;24.09;31.63;89470.75;4971971;28;20031;-59
2022/04/02 06:05:29;;;;;;;10.05;2.25;;;;;;;24.77;30.77;89465.13;4972341;28;20405;-59
2022/04/02 06:07:54;;;;;;;5.05;3.05;;;;;;;26.20;29.67;89471.78;4972154;28;20591;-59
2022/04/02 06:10:20;;;;;;;1.95;1.10;;;;;;;25.85;29.61;89474.44;4972394;28;20500;-60
2022/04/02 06:12:47;;;;;;;2.97;1.30;;;;;;;23.60;32.02;89473.50;4972283;28;20035;-59
2022/04/02 06:15:12;;;;;;;2.63;1.20;;;;;;;23.54;31.09;89470.50;4972288;28;20628;-59
2022/04/02 06:17:38;;;;;;;1.33;1.20;;;;;;;23.24;31.54;89458.00;4972266;28;20145;-66
2022/04/02 06:20:06;;;;;;;8.40;5.28;;;;;;;23.74;32.45;89461.53;4971829;28;20023;-64
2022/04/02 06:22:31;;;;;;;8.48;5.30;;;;;;;21.68;33.87;89477.16;4972304;28;20039;-68
2022/04/02 06:24:57;;;;;;;3.97;2.00;;;;;;;21.89;32.95;89468.69;4972206;28;20038;-61
2022/04/02 06:27:22;;;;;;;3.63;1.60;;;;;;;22.57;31.58;89467.50;4971675;28;20023;-60
2022/04/02 06:29:48;;;;;;;2.85;1.70;;;;;;;22.99;30.41;89463.94;4972044;28;20038;-59
2022/04/02 06:32:13;;;;;;;4.20;1.30;;;;;;;24.29;30.42;89474.16;4972052;28;20081;-60
2022/04/02 06:34:39;;;;;;;2.35;1.20;;;;;;;23.36;30.17;89485.66;4971508;28;20077;-59
2022/04/02 06:37:04;;;;;;;0.98;0.98;;;;;;;21.09;32.87;89474.91;4972227;28;20497;-59
2022/04/02 06:39:30;;;;;;;3.60;1.77;;;;;;;23.30;30.58;89490.81;4972044;28;20559;-59
2022/04/02 06:41:55;;;;;;;3.13;1.20;;;;;;;22.60;29.90;89489.13;4971971;28;20123;-59
2022/04/02 06:44:21;;;;;;;4.35;1.48;;;;;;;22.39;30.72;89470.53;4972002;28;20109;-59
2022/04/02 06:46:46;;;;;;;1.20;1.10;;;;;;;21.70;31.68;89491.81;4971623;28;20107;-58
2022/04/02 06:49:12;;;;;;;3.45;1.17;;;;;;;22.32;31.07;89481.50;4971637;28;20058;-62
2022/04/02 06:51:37;;;;;;;6.47;5.80;;;;;;;21.65;31.08;89484.16;4971434;28;20015;-64
2022/04/02 06:54:04;;;;;;;11.90;7.88;;;;;;;21.76;31.40;89470.44;4971978;28;20053;-67
2022/04/02 06:56:30;;;;;;;5.03;2.90;;;;;;;21.77;31.67;89472.75;4971889;28;20030;-66
2022/04/02 06:58:56;;;;;;;1.80;1.40;;;;;;;22.73;30.09;89481.13;4971851;28;20046;-60
2022/04/02 07:01:21;;;;;;;2.17;1.00;;;;;;;22.64;29.90;89459.22;4972125;28;20038;-59
2022/04/02 07:03:47;;;;;;;3.10;1.30;;;;;;;22.24;30.54;89477.38;4971437;28;20066;-60
2022/04/02 07:06:12;;;;;;;12.88;1.45;;;;;;;21.90;31.27;89483.00;4971439;28;20027;-60
2022/04/02 07:08:38;;;;;;;1.35;1.10;;;;;;;22.48;30.16;89478.88;4971922;28;20038;-60
2022/04/02 07:11:05;;;;;;;1.85;1.10;;;;;;;24.89;28.61;89471.78;4975470;28;20493;-59
2022/04/02 07:13:30;;;;;;;4.72;1.50;;;;;;;24.61;29.26;89459.72;4975318;28;20058;-59
2022/04/02 07:15:57;;;;;;;3.13;1.25;;;;;;;24.99;28.08;89473.44;4975453;28;20038;-60
2022/04/02 07:18:23;;;;;;;5.45;3.30;;;;;;;22.93;29.77;89473.75;4975312;28;20101;-60
2022/04/02 07:20:54;;;;;;;1.77;1.15;;;;;;;22.81;29.53;89460.03;4975009;28;20041;-60
2022/04/02 07:23:20;;;;;;;3.58;1.00;;;;;;;22.90;29.67;89488.16;4975338;28;20035;-61
2022/04/02 07:25:48;;;;;;;1.48;1.08;;;;;;;20.58;31.84;89487.53;4975231;28;20034;-60
2022/04/02 07:28:15;;;;;;;1.60;1.00;;;;;;;21.94;30.43;89494.53;4975171;28;20062;-59
2022/04/02 07:30:40;;;;;;;5.38;1.38;;;;;;;21.75;30.88;89487.88;4975211;28;20421;-60
2022/04/02 07:33:06;;;;;;;2.65;0.90;;;;;;;20.87;31.86;89494.13;4974781;28;20035;-60
2022/04/02 07:35:54;;;;;;;3.30;1.27;;;;;;;22.26;29.78;89475.81;4974498;28;20026;-61
2022/04/02 07:38:32;;;;;;;3.17;1.02;;;;;;;22.33;29.84;89499.28;4994178;28;20042;-63
2022/04/02 07:41:06;;;;;;;1.95;1.00;;;;;;;21.83;29.61;89508.25;4993837;28;20022;-60
2022/04/02 07:43:35;;;;;;;6.38;1.48;;;;;;;22.92;29.74;89496.66;4994550;28;20052;-60
2022/04/02 07:46:06;;;;;;;3.60;1.13;;;;;;;23.36;28.98;89508.13;4994201;28;20105;-59
2022/04/02 07:48:36;;;;;;;1.17;1.08;;;;;;;23.14;29.02;89496.97;4993476;28;20069;-60
2022/04/02 07:51:09;;;;;;;5.55;2.40;;;;;;;23.27;28.77;89495.13;4994387;28;20041;-63
2022/04/02 07:53:42;;;;;;;26.63;20.77;;;;;;;22.48;29.56;89505.22;4994205;28;20519;-66
2022/04/02 07:56:12;;;;;;;3.42;2.13;;;;;;;22.45;29.39;89478.97;4993368;28;20038;-67
2022/04/02 07:58:46;;;;;;;3.47;1.40;;;;;;;21.08;31.40;89511.25;4993869;28;20088;-61
2022/04/02 08:01:14;;;;;;;39.13;27.90;;;;;;;21.32;30.53;89533.75;4994381;28;20035;-60
2022/04/02 08:03:44;;;;;;;9.38;1.67;;;;;;;22.40;30.38;89510.00;4992802;28;20034;-60
2022/04/02 08:06:11;;;;;;;2.33;1.40;;;;;;;24.04;28.50;89512.81;4993401;28;20480;-61
2022/04/02 08:08:37;;;;;;;4.80;1.10;;;;;;;25.05;27.61;89501.66;4992639;28;20462;-61
2022/04/02 08:11:03;;;;;;;1.52;1.08;;;;;;;25.93;27.08;89492.09;4993681;28;20122;-60
2022/04/02 08:13:30;;;;;;;1.80;1.35;;;;;;;25.82;26.91;89505.28;4993149;28;20093;-60
2022/04/02 08:15:57;;;;;;;1.20;1.10;;;;;;;26.11;26.28;89496.97;4993807;28;20115;-59
2022/04/02 08:18:26;;;;;;;6.22;2.20;;;;;;;24.66;28.16;89502.72;4992954;28;20031;-60
2022/04/02 08:20:52;;;;;;;5.25;1.90;;;;;;;26.42;26.67;89527.16;4992989;28;20030;-59
2022/04/02 08:23:18;;;;;;;5.20;1.30;;;;;;;24.17;28.29;89546.25;4992924;28;20027;-60
2022/04/02 08:25:50;;;;;;;1.02;1.02;;;;;;;26.10;26.51;89525.44;4992911;28;20472;-60
2022/04/02 08:28:54;;;;;;;3.13;1.23;;;;;;;25.81;27.17;89522.81;4992988;28;20034;-61
2022/04/02 08:31:31;;;;;;;12.18;10.32;;;;;;;26.32;26.32;89522.78;4983819;28;20192;-69
2022/04/02 08:34:44;;;;;;;6.10;5.38;;;;;;;25.17;27.17;89524.66;4993095;28;20058;-67
2022/04/02 08:37:19;;;;;;;6.55;3.15;;;;;;;25.67;26.55;89529.44;4914081;29;20036;-67
2022/04/02 08:39:57;;;;;;;4.13;1.13;;;;;;;24.81;27.50;89519.41;4913946;29;20028;-59
2022/04/02 08:42:50;;;;;;;5.47;1.40;;;;;;;27.81;25.65;89521.56;4966602;28;20038;-59
2022/04/02 08:45:28;;;;;;;2.90;1.25;;;;;;;27.08;25.70;89508.94;4989922;28;20026;-60
2022/04/02 08:48:08;;;;;;;1.30;1.20;;;;;;;25.07;27.07;89506.69;4989695;28;20034;-60
2022/04/02 08:50:42;;;;;;;13.45;1.80;;;;;;;25.52;27.49;89506.53;4992531;28;20022;-60
2022/04/02 08:53:16;;;;;;;2.75;1.75;;;;;;;24.73;27.06;89518.06;4992561;28;20022;-60
2022/04/02 08:55:57;;;;;;;4.35;1.50;;;;;;;23.72;28.29;89496.50;4988899;28;20464;-59
2022/04/02 08:58:30;;;;;;;4.03;1.75;;;;;;;25.16;28.29;89489.72;4987670;28;20085;-59
2022/04/02 09:01:02;;;;;;;1.50;1.40;;;;;;;25.18;26.33;89492.78;4992316;28;20030;-59
2022/04/02 09:04:02;;;;;;;2.10;1.30;;;;;;;25.14;26.35;89503.78;4991860;28;20107;-60
2022/04/02 09:06:52;;;;;;;10.77;1.63;;;;;;;24.26;28.03;89495.97;4987456;28;20026;-60
2022/04/02 09:10:08;;;;;;;8.98;7.47;;;;;;;23.85;28.46;89500.06;4991897;28;20030;-71
2022/04/02 09:12:48;;;;;;;13.32;10.82;;;;;;;25.85;26.82;89485.31;4948193;28;20058;-68
2022/04/02 09:15:24;;;;;;;11.30;5.43;;;;;;;25.83;26.80;89495.13;4972183;28;20031;-65
2022/04/02 09:18:05;;;;;;;5.70;2.20;;;;;;;25.37;27.83;89489.84;4972536;28;20121;-61
2022/04/02 09:20:38;;;;;;;5.90;2.05;;;;;;;26.51;26.65;89491.81;4973265;28;20114;-61
2022/04/02 09:23:36;;;;;;;7.43;2.67;;;;;;;24.52;27.70;89496.91;4972937;28;20035;-61
2022/04/02 09:26:20;;;;;;;6.18;2.72;;;;;;;25.08;27.76;89522.56;4972920;28;20039;-62
2022/04/02 09:29:09;;;;;;;8.93;2.50;;;;;;;23.93;28.62;89506.09;4984033;28;20065;-62
2022/04/02 09:31:35;;;;;;;2.42;1.90;;;;;;;23.04;28.75;89508.03;4992382;28;20091;-61
2022/04/02 09:34:27;;;;;;;1.55;1.45;;;;;;;24.16;28.00;89514.09;4990910;28;20031;-62
2022/04/02 09:37:22;;;;;;;5.60;1.90;;;;;;;25.32;27.93;89495.84;4992136;28;20497;-62
2022/04/02 09:40:09;;;;;;;2.83;1.80;;;;;;;24.91;26.38;89509.44;4991993;28;20034;-60
2022/04/02 09:42:43;;;;;;;8.82;2.83;;;;;;;25.50;25.91;89498.03;4992279;28;20041;-60
2022/04/02 09:45:12;;;;;;;;;;;;;;;24.10;27.11;89527.41;4992694;28;20034;-60
2022/04/02 09:47:49;;;;;;;3.38;1.20;;;;;;;23.98;27.04;89525.34;4991782;28;19914;-61
2022/04/02 09:50:26;;;;;;;2.60;1.38;;;;;;;24.59;27.03;89513.00;4992061;28;20635;-61
2022/04/02 09:53:14;;;;;;;1.30;1.20;;;;;;;25.78;25.57;89512.81;4991913;28;20092;-62
2022/04/02 09:55:42;;;;;;;16.95;12.02;;;;;;;22.22;28.03;89523.84;4992268;28;20030;-62
2022/04/02 09:58:10;;;;;;;9.60;5.95;;;;;;;20.00;30.87;89524.38;4991953;28;20112;-61
2022/04/02 10:00:52;;;;;;;2.20;1.15;;;;;;;19.05;32.10;89531.97;4991828;28;20026;-62
2022/04/02 10:03:33;;;;;;;4.65;2.83;;;;;;;18.24;33.93;89529.19;4990871;28;20034;-61
2022/04/02 10:06:13;;;;;;;2.88;2.40;;;;;;;17.99;35.11;89536.56;4991732;28;20038;-60
2022/04/02 10:08:47;;;;;;;3.70;1.85;;;;;;;17.61;36.81;89538.84;4991592;28;20507;-60
2022/04/02 10:11:18;;;;;;;2.40;1.60;;;;;;;16.93;38.29;89531.88;4991780;28;20034;-63
2022/04/02 10:13:44;;;;;;;1.77;1.20;;;;;;;16.83;39.02;89522.66;4991628;28;20042;-60
2022/04/02 10:16:12;;;;;;;1.30;1.20;;;;;;;17.38;37.32;89535.78;4991693;28;20041;-60
2022/04/02 10:18:39;;;;;;;1.60;1.40;;;;;;;19.37;35.12;89531.78;4991416;28;20030;-61
2022/04/02 10:21:05;;;;;;;22.50;7.50;;;;;;;22.31;31.12;89517.91;4991651;28;20030;-61
2022/04/02 10:23:37;;;;;;;12.07;1.75;;;;;;;20.38;32.69;89506.28;4991675;28;20084;-61
2022/04/02 10:26:07;;;;;;;1.55;1.20;;;;;;;19.86;33.33;89508.31;4991447;28;20049;-61
2022/04/02 10:28:40;;;;;;;1.92;1.73;;;;;;;19.55;33.40;89508.16;4991879;28;20038;-60
2022/04/02 10:31:06;;;;;;;5.90;3.35;;;;;;;18.54;35.25;89514.47;4991266;28;20038;-62
2022/04/02 10:33:36;;;;;;;4.38;2.00;;;;;;;17.35;37.03;89523.09;4990864;28;20034;-64
2022/04/02 10:36:04;;;;;;;2.88;1.77;;;;;;;16.54;36.76;89535.19;4991745;28;20031;-62
2022/04/02 10:38:29;;;;;;;2.38;1.73;;;;;;;16.02;38.42;89553.34;4991416;28;20026;-61
2022/04/02 10:40:56;;;;;;;2.75;1.13;;;;;;;15.25;40.43;89567.69;4991484;28;20049;-62
2022/04/02 10:43:27;;;;;;;6.25;1.30;;;;;;;13.60;49.46;89598.94;4991590;28;20038;-61
2022/04/02 10:45:54;;;;;;;1.92;1.77;;;;;;;12.15;65.10;89587.19;4995117;28;20041;-60
2022/04/02 10:48:47;;;;;;;6.35;1.75;;;;;;;11.18;79.48;89631.38;4994779;28;20030;-61
2022/04/02 10:51:13;;;;;;;1.30;1.20;;;;;;;10.61;98.61;89614.00;4995477;28;20041;-60
2022/04/02 10:53:43;;;;;;;6.28;1.98;;;;;;;11.94;94.35;89584.06;4995480;28;20038;-61
2022/04/02 10:56:15;;;;;;;7.28;2.33;;;;;;;15.47;68.52;89582.06;4995411;28;20026;-61
2022/04/02 10:58:48;;;;;;;4.07;2.47;;;;;;;17.15;61.93;89565.69;4995669;28;20056;-62
2022/04/02 11:01:17;;;;;;;1.15;0.90;;;;;;;19.85;48.10;89575.00;4994660;28;20027;-62
2022/04/02 11:03:52;;;;;;;1.45;1.00;;;;;;;18.45;50.14;89576.81;4995240;28;20034;-63
2022/04/02 11:06:50;;;;;;;1.23;1.13;;;;;;;17.16;52.68;89564.53;4995056;28;20093;-62
2022/04/02 11:09:31;;;;;;;2.05;1.00;;;;;;;16.18;53.92;89567.22;4995171;28;20066;-62
2022/04/02 11:12:08;;;;;;;1.50;1.30;;;;;;;14.82;59.04;89558.47;4994924;28;20109;-61
2022/04/02 11:14:51;;;;;;;2.95;1.20;;;;;;;14.63;61.75;89562.88;4994594;28;20045;-61
2022/04/02 11:17:36;;;;;;;1.73;1.13;;;;;;;14.41;65.97;89560.28;4994422;28;20026;-63
2022/04/02 11:20:14;;;;;;;1.67;1.10;;;;;;;14.25;67.40;89547.09;4995179;28;20084;-62
2022/04/02 11:22:51;;;;;;;2.97;1.60;;;;;;;13.92;69.42;89545.16;4995132;28;20026;-62
2022/04/02 11:25:29;;;;;;;1.63;1.52;;;;;;;13.45;69.83;89549.84;4994963;28;20026;-62
2022/04/02 11:27:58;;;;;;;4.25;2.53;;;;;;;12.97;73.49;89563.94;4994813;28;20414;-62
2022/04/02 11:30:35;;;;;;;13.30;8.55;;;;;;;12.46;82.84;89550.81;4993992;28;20400;-62
2022/04/02 11:33:05;;;;;;;8.10;5.43;;;;;;;14.02;76.72;89526.56;4994203;28;20036;-62
2022/04/02 11:35:35;;;;;;;4.55;2.33;;;;;;;14.07;67.06;89528.94;4994554;28;20413;-63
2022/04/02 11:38:25;;;;;;;2.95;2.40;;;;;;;13.08;65.88;89533.59;4994690;28;20515;-61
2022/04/02 11:41:13;;;;;;;1.55;1.42;;;;;;;12.97;67.27;89559.34;4994795;28;20060;-61
2022/04/02 11:43:44;;;;;;;1.65;1.40;;;;;;;12.37;67.76;89553.72;4994775;28;20044;-61
2022/04/02 11:46:14;;;;;;;2.78;1.40;;;;;;;11.84;67.80;89532.13;4993903;28;20018;-62
2022/04/02 11:49:10;;;;;;;7.32;1.50;;;;;;;11.94;73.24;89539.53;4994501;28;20026;-61
2022/04/02 11:51:35;;;;;;;1.05;1.05;;;;;;;11.95;74.64;89517.09;4981188;28;20042;-60